createdAt,value
2022-08-30T00:01:49.418Z,21.15
2022-08-30T00:07:41.611Z,20.10
2022-08-30T00:13:33.527Z,26.35
2022-08-30T00:19:25.617Z,18.98
2022-08-30T00:25:17.937Z,20.38
2022-08-30T00:31:11.009Z,17.50
2022-08-30T00:37:07.705Z,24.63
2022-08-30T00:43:04.078Z,17.17
2022-08-30T00:49:00.604Z,27.92
2022-08-30T00:54:53.115Z,30.33
2022-08-30T01:00:45.244Z,27.27
2022-08-30T01:06:40.173Z,33.75
2022-08-30T01:12:32.938Z,29.95
2022-08-30T01:24:19.417Z,33.20
2022-08-30T01:30:12.617Z,36.33
2022-08-30T01:36:06.117Z,26.90
2022-08-30T01:41:58.944Z,21.95
2022-08-30T01:47:51.734Z,32.33
2022-08-30T01:53:45.225Z,24.43
2022-08-30T01:59:38.296Z,23.20
2022-08-30T02:05:30.717Z,25.07
2022-08-30T02:11:22.896Z,21.80
2022-08-30T02:17:15.556Z,20.60
2022-08-30T02:23:08.025Z,19.30
2022-08-30T02:29:01.023Z,18.33
2022-08-30T02:34:52.887Z,19.65
2022-08-30T02:40:45.424Z,19.75
2022-08-30T02:46:37.908Z,19.47
2022-08-30T02:52:29.573Z,17.40
2022-08-30T02:58:21.885Z,19.75
2022-08-30T03:04:13.964Z,22.05
2022-08-30T03:10:06.548Z,18.55
2022-08-30T03:15:59.186Z,20.50
2022-08-30T03:21:51.820Z,17.08
2022-08-30T03:27:44.335Z,21.00
2022-08-30T03:33:37.494Z,17.53
2022-08-30T03:39:29.889Z,17.73
2022-08-30T03:45:22.258Z,19.52
2022-08-30T03:51:16.039Z,20.52
2022-08-30T03:57:08.148Z,17.60
2022-08-30T04:03:06.325Z,16.25
2022-08-30T04:08:58.044Z,21.63
2022-08-30T04:14:50.413Z,18.65
2022-08-30T04:20:43.004Z,26.52
2022-08-30T04:26:35.487Z,15.93
2022-08-30T04:32:28.175Z,16.25
2022-08-30T04:38:22.654Z,17.93
2022-08-30T04:44:19.311Z,16.80
2022-08-30T04:50:14.023Z,22.23
2022-08-30T04:56:10.375Z,15.85
2022-08-30T05:02:02.350Z,18.17
2022-08-30T05:07:54.074Z,20.60
2022-08-30T05:13:47.633Z,18.95
2022-08-30T05:19:39.968Z,19.90
2022-08-30T05:25:34.005Z,18.52
2022-08-30T05:31:30.704Z,16.90
2022-08-30T05:37:23.664Z,8.25
2022-08-30T05:43:16.021Z,12.63
2022-08-30T05:49:08.388Z,17.48
2022-08-30T05:55:00.097Z,12.32
2022-08-30T06:00:52.388Z,20.05
2022-08-30T06:06:45.208Z,16.63
2022-08-30T06:12:37.481Z,12.90
2022-08-30T06:18:29.469Z,16.95
2022-08-30T06:24:35.815Z,17.83
2022-08-30T06:30:35.741Z,18.20
2022-08-30T06:36:28.703Z,18.90
2022-08-30T06:42:22.113Z,16.50
2022-08-30T06:54:10.925Z,12.20
2022-08-30T07:00:06.703Z,17.42
2022-08-30T07:05:58.663Z,13.63
2022-08-30T07:11:51.203Z,41.97
2022-08-30T07:18:03.186Z,18.30
2022-08-30T07:23:57.151Z,22.90
2022-08-30T07:29:49.660Z,15.63
2022-08-30T07:35:42.017Z,9.15
2022-08-30T07:41:38.893Z,12.00
2022-08-30T07:47:32.671Z,10.85
2022-08-30T07:53:24.932Z,10.80
2022-08-30T07:59:17.024Z,14.88
2022-08-30T08:05:13.912Z,7.88
2022-08-30T08:11:09.736Z,10.13
2022-08-30T08:17:02.022Z,9.20
2022-08-30T08:22:55.090Z,7.78
2022-08-30T08:28:48.793Z,5.97
2022-08-30T08:34:41.780Z,4.90
2022-08-30T08:40:44.098Z,6.35
2022-08-30T08:46:41.011Z,4.10
2022-08-30T08:53:04.951Z,8.48
2022-08-30T08:58:58.147Z,3.67
2022-08-30T09:04:51.342Z,6.68
2022-08-30T09:10:51.358Z,3.90
2022-08-30T09:16:58.983Z,7.07
2022-08-30T09:22:55.163Z,13.38
2022-08-30T09:28:51.134Z,4.03
2022-08-30T09:34:44.282Z,3.70
2022-08-30T09:40:41.781Z,4.93
2022-08-30T09:46:34.594Z,6.13
2022-08-30T09:52:31.196Z,3.70
2022-08-30T09:58:42.411Z,3.88
2022-08-30T10:10:53.376Z,2.40
2022-08-30T10:16:53.663Z,2.53
2022-08-30T10:22:50.337Z,4.40
2022-08-30T10:28:53.283Z,2.63
2022-08-30T10:35:08.264Z,3.00
2022-08-30T10:41:29.234Z,4.53
2022-08-30T10:47:42.063Z,11.88
2022-08-30T10:59:28.133Z,32.57
2022-08-30T11:05:26.255Z,3.63
2022-08-30T11:11:27.423Z,3.95
2022-08-30T11:17:37.178Z,3.05
2022-08-30T11:23:33.249Z,3.15
2022-08-30T11:29:30.906Z,4.35
2022-08-30T11:35:36.869Z,3.33
2022-08-30T11:41:38.202Z,9.02
2022-08-30T11:47:40.754Z,8.35
2022-08-30T11:53:45.465Z,2.80
2022-08-30T11:59:43.052Z,2.15
2022-08-30T12:05:38.946Z,2.25
2022-08-30T12:11:34.606Z,2.53
2022-08-30T12:18:07.143Z,3.08
2022-08-30T12:24:16.545Z,2.60
2022-08-30T12:30:09.995Z,2.92
2022-08-30T12:36:03.386Z,2.35
2022-08-30T12:41:55.978Z,4.82
2022-08-30T12:47:54.504Z,16.90
2022-08-30T12:53:47.374Z,36.80
2022-08-30T12:59:54.008Z,21.42
2022-08-30T13:05:48.613Z,83.13
2022-08-30T13:11:48.644Z,16.25
2022-08-30T13:17:40.771Z,17.65
2022-08-30T13:23:33.816Z,2.63
2022-08-30T13:29:27.480Z,2.10
2022-08-30T13:35:20.762Z,26.58
2022-08-30T13:41:12.513Z,6.72
2022-08-30T13:53:51.763Z,2.42
2022-08-30T13:59:33.453Z,5.20
2022-08-30T14:05:48.321Z,2.53
2022-08-30T14:11:41.473Z,21.27
2022-08-30T14:23:27.903Z,3.22
2022-08-30T14:29:22.043Z,5.63
2022-08-30T14:35:16.924Z,3.30
2022-08-30T14:41:08.719Z,13.32
2022-08-30T14:47:02.117Z,2.90
2022-08-30T14:58:48.228Z,3.08
2022-08-30T15:04:40.965Z,2.83
2022-08-30T15:10:33.309Z,3.10
2022-08-30T15:16:28.829Z,2.25
2022-08-30T15:22:20.995Z,2.13
2022-08-30T15:28:13.225Z,2.10
2022-08-30T15:34:05.624Z,3.30
2022-08-30T15:39:59.383Z,2.55
2022-08-30T15:45:54.031Z,6.07
2022-08-30T15:51:48.444Z,4.72
2022-08-30T15:57:44.123Z,2.42
2022-08-30T16:03:37.720Z,5.10
2022-08-30T16:09:32.689Z,5.15
2022-08-30T16:15:26.722Z,2.70
2022-08-30T16:21:20.711Z,7.13
2022-08-30T16:27:13.154Z,2.55
2022-08-30T16:33:06.074Z,9.80
2022-08-30T16:38:58.508Z,4.40
2022-08-30T16:44:51.326Z,5.35
2022-08-30T16:50:46.003Z,4.55
2022-08-30T16:56:39.446Z,3.72
2022-08-30T17:02:31.683Z,3.13
2022-08-30T17:08:25.474Z,5.35
2022-08-30T17:14:21.469Z,6.30
2022-08-30T17:20:21.931Z,4.15
2022-08-30T17:26:15.412Z,3.53
2022-08-30T17:32:07.297Z,3.83
2022-08-30T17:38:02.682Z,5.20
2022-08-30T17:43:55.463Z,6.00
2022-08-30T17:49:48.544Z,3.40
2022-08-30T17:55:40.532Z,4.95
2022-08-30T18:01:35.016Z,4.53
2022-08-30T18:07:27.164Z,4.90
2022-08-30T18:13:19.815Z,5.63
2022-08-30T18:19:12.633Z,3.10
2022-08-30T18:25:06.172Z,22.93
2022-08-30T18:30:58.724Z,8.27
2022-08-30T18:36:51.115Z,4.88
2022-08-30T18:42:43.933Z,3.53
2022-08-30T18:48:37.122Z,4.78
2022-08-30T18:54:32.824Z,4.60
2022-08-30T19:00:26.047Z,3.75
2022-08-30T19:06:18.534Z,6.43
2022-08-30T19:12:11.524Z,5.15
2022-08-30T19:18:07.402Z,11.43
2022-08-30T19:24:09.717Z,3.50
2022-08-30T19:30:03.095Z,8.73
2022-08-30T19:35:56.362Z,7.37
2022-08-30T19:41:48.853Z,13.52
2022-08-30T19:47:40.675Z,6.00
2022-08-30T19:53:32.934Z,4.85
2022-08-30T19:59:24.863Z,5.50
2022-08-30T20:05:17.035Z,5.60
2022-08-30T20:11:17.847Z,8.18
2022-08-30T20:17:11.673Z,7.60
2022-08-30T20:23:05.456Z,7.53
2022-08-30T20:29:00.245Z,7.63
2022-08-30T20:34:54.262Z,4.70
2022-08-30T20:40:54.814Z,9.15
2022-08-30T20:46:47.779Z,7.32
2022-08-30T20:52:41.610Z,3.30
2022-08-30T20:58:34.099Z,10.93
2022-08-30T21:04:26.384Z,5.38
2022-08-30T21:10:23.251Z,11.40
2022-08-30T21:16:17.198Z,7.47
2022-08-30T21:22:14.836Z,7.97
2022-08-30T21:28:07.480Z,5.85
2022-08-30T21:34:00.205Z,7.07
2022-08-30T21:39:51.810Z,7.93
2022-08-30T21:45:45.311Z,5.95
2022-08-30T21:51:39.433Z,4.53
2022-08-30T21:57:33.124Z,8.38
2022-08-30T22:03:24.764Z,8.95
2022-08-30T22:09:18.515Z,6.90
2022-08-30T22:15:11.502Z,6.25
2022-08-30T22:21:04.370Z,12.25
2022-08-30T22:26:59.346Z,4.95
2022-08-30T22:32:51.488Z,9.52
2022-08-30T22:38:45.270Z,9.68
2022-08-30T22:44:37.333Z,5.93
2022-08-30T22:50:29.588Z,5.60
2022-08-30T22:56:23.843Z,5.93
2022-08-30T23:02:17.362Z,6.05
2022-08-30T23:08:09.925Z,6.43
2022-08-30T23:14:03.464Z,4.87
2022-08-30T23:19:59.524Z,4.40
2022-08-30T23:26:10.682Z,8.77
2022-08-30T23:32:22.206Z,5.45
2022-08-30T23:38:32.764Z,6.82
2022-08-30T23:44:43.824Z,7.60
2022-08-30T23:50:55.082Z,8.10
2022-08-30T23:57:05.894Z,5.25
